Terminal Aerodrome Forecast
Issued by NWS Chicago, IL

Home | Current Version | Previous Version | Text Only | Print | Product List | Glossary Off
Versions: 1 2 3 4 5 6 7 8 9 10 11 12 13 14 15 16 17 18 19 20 21 22 23 24 25 26 27 28 29 30

438
FTUS43 KLOT 171502 AAB
TAFRFD
TAF AMD
KRFD 171502Z 1715/1812 28008KT 1/4SM FG OVC003
     FM171800 27009KT 4SM BR OVC004
     FM172100 27008KT 4SM -DZ BR OVC004
     FM180600 27007KT 4SM BR SCT004 OVC006=

USA.gov is the U.S. government's official web portal to all federal, state and local government web resources and services.